San Diego, California
Current Conditions -  °F | °C
As of 12:51 PM on Wednesday 26 Nov 2014 (Local Time) from KSAN Reporting Station
Clear Clear  
Wind Chill: 79°   Ceiling: Unl
Heat Index: 79°   Visibility: 10mi
Dew Point: 26°   Wind: 7mph
Humidity: 14%   Direction: 300°WNW
Pressure: 30.14"   Gusts: NA
Location:  32.72°N, 117.16°W
Report Text: KSAN 262051Z 30006KT 10SM CLR 26/M03 A3014 RMK AO2 SLP207 T02611033 58029
Loading
Personal Weather Stations






























Interactive Weather Map New forecast layout! Learn more

10-Day Weather Forecast

Advertisements
Track Severe Weather on mobile